メインページ
METAR-TAF:

METAR-TAF

空港 :

Val-d'Or, ケベック州, カナダ

緯度: 48-04N, 経度: 077-47W, 海抜: 337m

現時点の気象観測

当レポートは1時間8分前の17:00(UTC)に作成
の風 8kt、北/北西から北東の間で変化する
気温 19°C
湿度 56%
気圧 1012 hPa
視程: 24.1km
高度4400ftの雲はほとんどない
高度23000ftの雲はほとんどない

METAR: CYVO 211700Z 36008KT 340V050 15SM FEW044 FEW230 19/10 A2988 RMK CU1CC1 CC TR SLP124 DENSITY ALT 2000FT

時間: 14:08 (18:08 UTC)

予報

当レポートは30分前の17:38(UTC)に作成
予報は21日の 18時(UTC)から 22日の 06時(UTC)まで有効
の風 10kt
視程: 10km
高度4000ftの雲は散在している
22日の 00時(UTC)から 22日の 02時(UTC)まで徐々に
変向風 3kt

TAF: CYVO 211738Z 2118/2206 36010KT P6SM SCT040 BECMG 2200/2202 VRB03KT RMK NXT FCST BY 220000Z

4,000以上の空港の気象観測と天気予報(METAR報とTAF報)

利用可能な観測所は地図上に黄色い丸と赤い丸で示す。

丸の上にカーソルを重ねると観測所名を参照できる。

次にクリックすると気象観測と天気予報を参照できる。

マップの切り替え:黒色「×」印の緑ボタンをクリックして拡大、「-」印の緑ボタンをクリックして縮小、緑色の三角印をクリックして隣りの地図に切り替え


METAR-TAF: